Time;durP1;ratioP1;P1;durP2;ratioP2;P2;SDS_P1;SDS_P2;PMS_P1;PMS_P2;Temp;Humidity;BMP_temperature;BMP_pressure;BME280_temperature;BME280_humidity;BME280_pressure;Samples;Min_cycle;Max_cycle;Signal;HPM_P1;HPM_P2
2021/01/14 00:00:38;;;;;;;4.23;3.77;;;;;;;-0.49;100.00;95686.44;5113600;28;20214;-92
2021/01/14 00:03:06;;;;;;;4.70;3.67;;;;;;;-0.40;100.00;95692.72;5113503;28;20648;-92
2021/01/14 00:05:34;;;;;;;4.37;3.67;;;;;;;-0.46;100.00;95694.91;5113254;28;20198;-93
2021/01/14 00:08:01;;;;;;;4.27;3.60;;;;;;;-0.51;100.00;95692.66;5113327;28;20200;-91
2021/01/14 00:10:36;;;;;;;5.20;3.67;;;;;;;-0.47;100.00;95694.09;5113388;28;20195;-92
2021/01/14 00:13:03;;;;;;;4.30;3.50;;;;;;;-0.51;100.00;95700.38;5113260;28;20276;-91
2021/01/14 00:15:31;;;;;;;4.37;3.60;;;;;;;-0.51;100.00;95692.66;5113848;28;20582;-92
2021/01/14 00:17:58;;;;;;;3.83;3.53;;;;;;;-0.48;100.00;95697.59;5112904;28;20222;-91
2021/01/14 00:20:26;;;;;;;3.73;3.27;;;;;;;-0.53;100.00;95689.34;5113147;28;20183;-92
2021/01/14 00:22:53;;;;;;;5.63;4.23;;;;;;;-0.50;100.00;95689.13;5113156;28;20184;-91
2021/01/14 00:25:21;;;;;;;4.87;4.23;;;;;;;-0.56;100.00;95692.13;5112904;28;20192;-92
2021/01/14 00:27:50;;;;;;;3.97;3.40;;;;;;;-0.63;100.00;95683.16;5113463;28;20195;-91
2021/01/14 00:30:22;;;;;;;4.30;3.07;;;;;;;-0.62;100.00;95685.63;5113246;28;20199;-91
2021/01/14 00:32:50;;;;;;;4.03;3.63;;;;;;;-0.68;100.00;95688.63;5113110;28;20180;-92
2021/01/14 00:35:17;;;;;;;4.17;3.47;;;;;;;-0.60;100.00;95682.94;5113313;28;20199;-91
2021/01/14 00:37:56;;;;;;;9.63;5.77;;;;;;;-0.48;100.00;95682.13;5112919;28;20284;-93
2021/01/14 00:40:27;;;;;;;6.93;4.67;;;;;;;-0.50;100.00;95684.78;5113034;28;20199;-92
2021/01/14 00:42:55;;;;;;;3.97;3.50;;;;;;;-0.44;100.00;95686.13;5112877;28;20172;-93
2021/01/14 00:45:30;;;;;;;5.87;4.97;;;;;;;-0.52;100.00;95685.81;5113208;28;20272;-91
2021/01/14 00:47:59;;;;;;;7.87;4.83;;;;;;;-0.54;100.00;95687.69;5113075;28;20199;-91
2021/01/14 00:50:26;;;;;;;4.53;4.13;;;;;;;-0.45;100.00;95692.22;5113166;28;20199;-92
2021/01/14 00:52:54;;;;;;;7.53;4.67;;;;;;;-0.61;100.00;95694.19;5112742;28;20196;-92
2021/01/14 00:55:21;;;;;;;5.17;4.13;;;;;;;-0.52;100.00;95693.56;5116505;28;20263;-92
2021/01/14 00:57:49;;;;;;;5.33;4.30;;;;;;;-0.42;100.00;95689.41;5116096;28;20223;-91
2021/01/14 01:00:17;;;;;;;6.30;3.53;;;;;;;-0.47;100.00;95699.25;5116719;28;20199;-91
2021/01/14 01:02:45;;;;;;;6.53;4.30;;;;;;;-0.57;100.00;95690.47;5116646;28;20278;-91
2021/01/14 01:05:17;;;;;;;3.87;3.53;;;;;;;-0.56;100.00;95692.94;5117004;28;20188;-92
2021/01/14 01:07:52;;;;;;;4.77;4.07;;;;;;;-0.62;100.00;95682.25;5116342;28;20227;-91
2021/01/14 01:10:25;;;;;;;8.47;4.10;;;;;;;-0.60;100.00;95685.53;5116443;28;20184;-92
2021/01/14 01:12:52;;;;;;;6.50;4.30;;;;;;;-0.63;100.00;95686.53;5116297;28;20195;-92
2021/01/14 01:15:20;;;;;;;5.37;3.73;;;;;;;-0.53;100.00;95690.16;5116289;28;20195;-92
2021/01/14 01:17:49;;;;;;;6.13;3.97;;;;;;;-0.55;100.00;95683.47;5116476;28;20219;-92
2021/01/14 01:20:27;;;;;;;5.53;4.27;;;;;;;-0.55;100.00;95680.88;5116112;28;20195;-91
2021/01/14 01:22:57;;;;;;;5.93;4.00;;;;;;;-0.74;100.00;95676.13;5116178;28;20202;-91
2021/01/14 01:25:24;;;;;;;6.27;4.33;;;;;;;-0.60;100.00;95678.59;5116199;28;20199;-92
2021/01/14 01:27:51;;;;;;;5.63;4.30;;;;;;;-0.62;100.00;95680.47;5116861;28;20199;-92
2021/01/14 01:30:24;;;;;;;11.33;5.27;;;;;;;-0.74;100.00;95674.38;5116192;28;20192;-93
2021/01/14 01:32:51;;;;;;;6.33;4.10;;;;;;;-0.65;100.00;95685.03;5116144;28;20638;-91
2021/01/14 01:35:18;;;;;;;6.27;4.73;;;;;;;-0.67;100.00;95677.38;5116296;28;20279;-91
2021/01/14 01:37:49;;;;;;;5.50;3.90;;;;;;;-0.64;100.00;95681.50;5116259;28;20722;-91
2021/01/14 01:40:16;;;;;;;5.43;4.57;;;;;;;-0.56;100.00;95684.38;5115778;28;20196;-91
2021/01/14 01:42:56;;;;;;;4.93;4.17;;;;;;;-0.70;100.00;95692.22;5115749;28;20202;-91
2021/01/14 01:45:23;;;;;;;3.57;3.17;;;;;;;-0.75;100.00;95689.97;5115801;28;20377;-92
2021/01/14 01:47:50;;;;;;;7.33;3.77;;;;;;;-0.79;100.00;95699.69;5115839;28;20572;-92
2021/01/14 01:50:19;;;;;;;4.10;3.70;;;;;;;-0.87;100.00;95699.34;5115903;28;20196;-91
2021/01/14 01:52:50;;;;;;;4.93;4.40;;;;;;;-0.87;100.00;95701.94;5115340;28;20195;-92
2021/01/14 01:55:18;;;;;;;4.17;3.77;;;;;;;-0.78;100.00;95695.34;5115324;28;20235;-92
2021/01/14 01:57:46;;;;;;;4.07;3.57;;;;;;;-0.78;100.00;95698.75;5115723;28;20245;-92
2021/01/14 02:00:14;;;;;;;6.07;4.33;;;;;;;-0.78;100.00;95703.91;5115432;28;20244;-91
2021/01/14 02:02:44;;;;;;;4.50;3.53;;;;;;;-0.68;100.00;95703.28;5115416;28;20578;-91
2021/01/14 02:05:14;;;;;;;4.10;3.70;;;;;;;-0.69;100.00;95702.47;5114664;28;20195;-92
2021/01/14 02:07:51;;;;;;;4.83;3.47;;;;;;;-0.73;100.00;95704.44;5115518;28;20204;-92
2021/01/14 02:10:27;;;;;;;5.17;3.40;;;;;;;-0.82;100.00;95697.31;5114848;28;20183;-92
2021/01/14 02:13:16;;;;;;;5.07;3.40;;;;;;;-0.99;100.00;95695.03;5115166;28;20192;-92
2021/01/14 02:15:44;;;;;;;4.87;3.97;;;;;;;-0.90;100.00;95697.00;5115450;28;20191;-93
2021/01/14 02:18:17;;;;;;;5.63;4.00;;;;;;;-0.99;100.00;95693.28;5114781;28;20227;-92
2021/01/14 02:20:49;;;;;;;3.57;3.20;;;;;;;-0.72;100.00;95695.75;5114853;28;20190;-92
2021/01/14 02:23:22;;;;;;;3.73;3.40;;;;;;;-0.71;100.00;95696.56;5115128;28;20264;-93
2021/01/14 02:26:21;;;;;;;5.33;3.40;;;;;;;-0.70;100.00;95693.06;5115334;28;20274;-92
2021/01/14 02:28:49;;;;;;;3.33;3.03;;;;;;;-0.83;100.00;95707.72;5032802;28;20278;-93
2021/01/14 02:31:16;;;;;;;4.50;3.27;;;;;;;-0.99;100.00;95703.59;5097977;28;20200;-91
2021/01/14 02:33:44;;;;;;;5.17;3.47;;;;;;;-0.98;100.00;95702.66;5114685;28;20252;-91
2021/01/14 02:36:14;;;;;;;5.50;4.07;;;;;;;-0.99;100.00;95698.44;5114879;28;20589;-92
2021/01/14 02:38:47;;;;;;;4.67;3.93;;;;;;;-0.82;100.00;95692.16;5114529;28;20227;-93
2021/01/14 02:41:14;;;;;;;4.37;3.50;;;;;;;-0.86;100.00;95705.38;5115001;28;20200;-91
2021/01/14 02:43:43;;;;;;;4.23;3.30;;;;;;;-0.90;100.00;95701.31;5114821;28;20200;-92
2021/01/14 02:46:10;;;;;;;5.17;3.40;;;;;;;-0.72;100.00;95700.09;5114722;28;20199;-91
2021/01/14 02:48:41;;;;;;;5.30;3.83;;;;;;;-0.72;100.00;95700.91;5114630;28;20196;-91
2021/01/14 02:51:13;;;;;;;3.70;2.93;;;;;;;-0.66;100.00;95699.66;5114712;28;20196;-92
2021/01/14 02:53:42;;;;;;;5.90;3.73;;;;;;;-0.62;100.00;95695.16;5114163;28;20706;-91
2021/01/14 02:56:11;;;;;;;5.43;4.07;;;;;;;-0.85;100.00;95699.25;5114643;28;20573;-92
2021/01/14 02:58:38;;;;;;;6.03;4.13;;;;;;;-0.90;100.00;95691.84;5114216;28;20215;-91
2021/01/14 03:01:09;;;;;;;4.63;4.03;;;;;;;-1.08;100.00;95709.34;5114233;28;20202;-91
2021/01/14 03:03:36;;;;;;;5.97;4.50;;;;;;;-1.11;100.00;95708.72;5114235;28;20198;-91
2021/01/14 03:06:03;;;;;;;7.03;4.57;;;;;;;-1.02;100.00;95710.69;5113926;28;20188;-93
2021/01/14 03:08:30;;;;;;;6.37;5.67;;;;;;;-1.11;100.00;95709.56;5114796;28;20195;-91
2021/01/14 03:10:57;;;;;;;8.00;6.10;;;;;;;-1.14;100.00;95714.06;5114275;28;20231;-91
2021/01/14 03:13:23;;;;;;;6.40;4.57;;;;;;;-1.27;100.00;95712.31;5114015;28;20659;-91
2021/01/14 03:15:50;;;;;;;5.00;4.50;;;;;;;-1.26;100.00;95713.97;5113701;28;20711;-94
2021/01/14 03:18:18;;;;;;;7.57;5.00;;;;;;;-1.30;100.00;95714.28;5114126;28;20306;-92
2021/01/14 03:20:46;;;;;;;6.40;3.97;;;;;;;-1.48;100.00;95718.88;5114501;28;21004;-89
2021/01/14 03:23:12;;;;;;;6.73;4.00;;;;;;;-1.46;100.00;95715.25;5113717;28;20206;-90
2021/01/14 03:25:39;;;;;;;6.73;4.93;;;;;;;-1.52;100.00;95712.25;5112642;28;20199;-92
2021/01/14 03:28:06;;;;;;;5.10;4.07;;;;;;;-1.35;100.00;95706.84;5112086;28;20282;-91
2021/01/14 03:30:33;;;;;;;4.73;4.00;;;;;;;-1.52;100.00;95704.53;5112861;28;20207;-90
2021/01/14 03:33:00;;;;;;;5.27;3.90;;;;;;;-1.31;100.00;95705.72;5112976;28;20196;-90
2021/01/14 03:35:28;;;;;;;3.63;3.33;;;;;;;-1.44;100.00;95707.44;5112787;28;20668;-90
2021/01/14 03:37:55;;;;;;;5.70;3.93;;;;;;;-1.61;100.00;95700.78;5112572;28;20237;-91
2021/01/14 03:40:21;;;;;;;5.77;4.07;;;;;;;-1.55;100.00;95702.16;5112668;28;20225;-90
2021/01/14 03:42:51;;;;;;;4.40;3.90;;;;;;;-1.55;100.00;95697.00;5112958;28;20211;-91
2021/01/14 03:45:22;;;;;;;4.00;3.40;;;;;;;-1.51;100.00;95706.16;5113071;27;20256;-92
2021/01/14 03:47:49;;;;;;;6.17;4.03;;;;;;;-1.44;100.00;95710.00;5112908;28;20686;-90
2021/01/14 03:50:19;;;;;;;4.13;3.50;;;;;;;-1.22;100.00;95712.00;5112673;27;20203;-90
2021/01/14 03:52:56;;;;;;;4.60;3.27;;;;;;;-1.31;100.00;95708.28;5112609;28;20720;-90
2021/01/14 03:55:26;;;;;;;5.30;3.37;;;;;;;-1.30;100.00;95712.50;5112315;28;20714;-90
2021/01/14 03:57:52;;;;;;;4.73;3.83;;;;;;;-1.22;100.00;95714.59;5112392;28;20739;-90
2021/01/14 04:00:20;;;;;;;7.20;3.47;;;;;;;-1.21;100.00;95716.25;5112551;28;20617;-90
2021/01/14 04:02:50;;;;;;;3.47;2.90;;;;;;;-1.18;100.00;95712.63;5112210;28;20223;-90
2021/01/14 04:05:17;;;;;;;4.33;3.73;;;;;;;-1.39;100.00;95720.84;5112535;28;20199;-89
2021/01/14 04:07:44;;;;;;;3.97;3.47;;;;;;;-1.47;100.00;95723.09;5112629;28;20871;-89
2021/01/14 04:10:12;;;;;;;4.53;3.07;;;;;;;-1.65;100.00;95717.38;5112357;28;20234;-89
2021/01/14 04:12:42;;;;;;;6.60;3.40;;;;;;;-1.68;100.00;95715.81;5111948;28;20706;-89
2021/01/14 04:15:15;;;;;;;6.80;3.80;;;;;;;-1.61;100.00;95705.09;5112185;28;20203;-89
2021/01/14 04:17:41;;;;;;;7.90;5.07;;;;;;;-1.75;100.00;95711.97;5112264;28;20245;-89
2021/01/14 04:20:15;;;;;;;4.23;3.40;;;;;;;-1.77;100.00;95716.38;5112543;28;20724;-90
2021/01/14 04:22:41;;;;;;;15.37;9.10;;;;;;;-1.54;100.00;95717.50;5112303;28;20191;-89
2021/01/14 04:25:10;;;;;;;10.50;7.20;;;;;;;-1.42;100.00;95721.06;5112177;28;20283;-88
2021/01/14 04:27:38;;;;;;;10.47;6.83;;;;;;;-1.69;100.00;95703.84;5113408;28;20575;-89
2021/01/14 04:30:09;;;;;;;14.20;8.37;;;;;;;-1.81;100.00;95696.88;5116856;28;20223;-89
2021/01/14 04:32:36;;;;;;;9.10;4.60;;;;;;;-1.82;100.00;95702.97;5116508;28;20191;-89
2021/01/14 04:35:35;;;;;;;5.93;5.10;;;;;;;-2.05;100.00;95706.16;5117137;28;20199;-90
2021/01/14 04:38:02;;;;;;;8.63;6.00;;;;;;;-2.30;100.00;95710.25;5103085;28;20306;-88
2021/01/14 04:40:29;;;;;;;3.87;3.43;;;;;;;-2.16;100.00;95715.38;5116149;28;20317;-88
2021/01/14 04:43:06;;;;;;;4.00;3.63;;;;;;;-1.89;100.00;95714.59;5116004;28;20188;-87
2021/01/14 04:45:33;;;;;;;6.30;3.23;;;;;;;-2.27;100.00;95712.63;5115505;28;20238;-87
2021/01/14 04:48:03;;;;;;;6.30;4.50;;;;;;;-2.22;100.00;95707.19;5115768;28;20206;-88
2021/01/14 04:50:30;;;;;;;7.23;5.13;;;;;;;-2.11;100.00;95706.53;5116214;28;20248;-88
2021/01/14 04:53:00;;;;;;;5.57;4.53;;;;;;;-2.27;100.00;95698.94;5116070;28;20203;-88
2021/01/14 04:55:30;;;;;;;5.13;4.40;;;;;;;-2.05;100.00;95695.84;5115637;28;20223;-88
2021/01/14 04:58:02;;;;;;;4.27;3.77;;;;;;;-2.20;100.00;95692.50;5115612;28;20219;-88
2021/01/14 05:00:31;;;;;;;6.60;4.97;;;;;;;-2.25;100.00;95687.63;5115966;28;20205;-89
2021/01/14 05:03:06;;;;;;;5.83;4.07;;;;;;;-2.02;100.00;95686.19;5115793;28;20218;-89
2021/01/14 05:05:33;;;;;;;3.77;3.47;;;;;;;-2.12;100.00;95679.13;5116103;28;20250;-89
2021/01/14 05:08:09;;;;;;;4.03;3.63;;;;;;;-2.26;100.00;95685.16;5115598;28;20191;-87
2021/01/14 05:10:39;;;;;;;3.67;3.33;;;;;;;-2.03;100.00;95678.56;5115709;28;20198;-88
2021/01/14 05:13:07;;;;;;;6.00;4.77;;;;;;;-2.01;100.00;95681.88;5115409;28;20207;-90
2021/01/14 05:16:06;;;;;;;5.63;4.50;;;;;;;-2.01;100.00;95667.25;5115908;28;20644;-90
2021/01/14 05:18:34;;;;;;;6.40;5.17;;;;;;;-2.24;100.00;95676.41;5114983;28;20345;-89
2021/01/14 05:21:01;;;;;;;7.03;5.33;;;;;;;-2.45;100.00;95664.88;5115820;28;20199;-88
2021/01/14 05:23:31;;;;;;;7.63;5.20;;;;;;;-2.48;100.00;95670.22;5116197;28;20191;-92
2021/01/14 05:25:59;;;;;;;8.67;5.60;;;;;;;-2.43;100.00;95675.88;5115898;28;20776;-88
2021/01/14 05:28:27;;;;;;;5.57;4.27;;;;;;;-2.38;100.00;95673.06;5115947;28;20230;-89
2021/01/14 05:30:54;;;;;;;6.57;4.60;;;;;;;-2.48;100.00;95667.63;5116077;28;20655;-89
2021/01/14 05:33:23;;;;;;;6.00;5.40;;;;;;;-2.61;100.00;95662.41;5115646;28;20188;-88
2021/01/14 05:35:51;;;;;;;7.03;6.33;;;;;;;-2.64;100.00;95658.25;5115148;28;20210;-89
2021/01/14 05:38:22;;;;;;;10.23;8.60;;;;;;;-2.72;100.00;95663.06;5116065;28;20261;-89
2021/01/14 05:43:31;;;;;;;9.07;5.13;;;;;;;-2.52;100.00;95646.41;5112867;28;20680;-88
2021/01/14 05:46:14;;;;;;;6.20;4.03;;;;;;;-2.40;100.00;95649.97;5116005;28;20195;-89
2021/01/14 05:48:43;;;;;;;7.77;3.87;;;;;;;-2.11;100.00;95653.31;5115822;28;20192;-89
2021/01/14 05:51:17;;;;;;;5.80;4.23;;;;;;;-2.04;100.00;95651.19;5115860;28;20619;-90
2021/01/14 05:53:58;;;;;;;4.47;3.43;;;;;;;-1.95;100.00;95656.56;5115661;28;20296;-88
2021/01/14 05:56:32;;;;;;;5.50;3.77;;;;;;;-1.95;100.00;95669.44;5115998;28;20176;-89
2021/01/14 05:58:59;;;;;;;5.60;4.03;;;;;;;-1.77;100.00;95671.75;5115436;28;20208;-88
2021/01/14 06:01:26;;;;;;;6.07;3.97;;;;;;;-1.76;100.00;95671.69;5115314;28;20194;-89
2021/01/14 06:03:54;;;;;;;8.67;3.83;;;;;;;-1.79;100.00;95677.03;5115326;28;20213;-88
2021/01/14 06:06:21;;;;;;;4.50;3.83;;;;;;;-1.76;100.00;95676.81;5115419;28;20257;-88
2021/01/14 06:08:48;;;;;;;5.93;4.57;;;;;;;-1.79;100.00;95673.63;5115109;28;20195;-88
2021/01/14 06:11:20;;;;;;;14.07;12.17;;;;;;;-1.87;100.00;95681.84;5115162;28;20192;-89
2021/01/14 06:13:47;;;;;;;29.47;26.70;;;;;;;-1.82;100.00;95682.38;5115109;28;20199;-89
2021/01/14 06:16:14;;;;;;;20.20;16.80;;;;;;;-2.00;100.00;95678.38;5115248;28;20198;-88
2021/01/14 06:18:41;;;;;;;12.23;9.27;;;;;;;-2.10;100.00;95683.28;5115494;28;20309;-88
2021/01/14 06:21:09;;;;;;;27.93;17.50;;;;;;;-2.20;100.00;95672.72;5115338;28;20199;-89
2021/01/14 06:23:46;;;;;;;23.83;15.80;;;;;;;-2.08;100.00;95673.69;5115482;28;20584;-89
2021/01/14 06:26:26;;;;;;;16.93;12.10;;;;;;;-1.98;100.00;95669.63;5115245;28;20186;-88
2021/01/14 06:28:53;;;;;;;16.37;11.10;;;;;;;-1.95;100.00;95676.34;5114650;28;20184;-88
2021/01/14 06:31:27;;;;;;;14.63;10.50;;;;;;;-1.98;100.00;95682.50;5114993;28;20199;-88
2021/01/14 06:33:55;;;;;;;16.97;11.27;;;;;;;-1.82;100.00;95681.53;5114733;28;20184;-89
2021/01/14 06:36:33;;;;;;;18.47;12.40;;;;;;;-1.65;100.00;95683.88;5115287;28;20692;-89
2021/01/14 06:39:12;;;;;;;22.97;15.83;;;;;;;-1.65;100.00;95689.03;5114565;28;20207;-89
2021/01/14 06:41:41;;;;;;;22.27;18.60;;;;;;;-1.50;100.00;95688.03;5114932;28;20188;-89
2021/01/14 06:44:09;;;;;;;102.63;52.97;;;;;;;-1.28;100.00;95691.78;5114587;28;20282;-89
2021/01/14 06:46:37;;;;;;;65.83;36.77;;;;;;;-1.33;100.00;95688.69;5114785;28;20282;-89
2021/01/14 06:49:12;;;;;;;31.17;18.03;;;;;;;-1.17;100.00;95693.69;5114676;28;20197;-89
2021/01/14 06:51:57;;;;;;;23.50;15.40;;;;;;;-1.27;100.00;95696.03;5115018;28;20179;-89
2021/01/14 06:54:26;;;;;;;22.00;11.60;;;;;;;-1.15;100.00;95709.84;5114193;28;20231;-90
2021/01/14 06:56:57;;;;;;;15.73;10.10;;;;;;;-0.96;100.00;95702.56;5114312;28;20199;-90
2021/01/14 06:59:25;;;;;;;18.80;11.50;;;;;;;-0.76;100.00;95707.22;5114583;28;20580;-90
2021/01/14 07:02:44;;;;;;;13.73;10.33;;;;;;;-0.57;100.00;95704.22;5114454;28;20660;-89
2021/01/14 07:05:20;;;;;;;18.13;13.03;;;;;;;-0.88;100.00;95712.38;5081420;28;20665;-89
2021/01/14 07:07:49;;;;;;;11.63;8.57;;;;;;;-1.10;100.00;95720.72;5114074;28;20636;-88
2021/01/14 07:10:17;;;;;;;21.53;12.37;;;;;;;-0.96;100.00;95718.03;5114246;28;20242;-88
2021/01/14 07:12:46;;;;;;;40.73;21.47;;;;;;;-0.71;100.00;95717.22;5114511;28;20278;-88
2021/01/14 07:15:14;;;;;;;30.50;16.43;;;;;;;-0.85;100.00;95720.72;5116457;28;20203;-88
2021/01/14 07:17:43;;;;;;;12.13;8.87;;;;;;;-0.56;100.00;95720.50;5114264;28;20322;-88
2021/01/14 07:20:11;;;;;;;12.63;9.63;;;;;;;-0.29;100.00;95723.78;5114523;28;20264;-89
2021/01/14 07:22:43;;;;;;;13.27;10.23;;;;;;;0.20;100.00;95729.88;5114829;28;20192;-88
2021/01/14 07:25:13;;;;;;;10.03;7.50;;;;;;;0.62;100.00;95723.38;5117848;28;20184;-89
2021/01/14 07:27:42;;;;;;;17.23;9.80;;;;;;;0.86;100.00;95719.97;5114030;28;20191;-89
2021/01/14 07:30:10;;;;;;;8.00;6.73;;;;;;;1.14;100.00;95722.19;5113848;28;20583;-89
2021/01/14 07:32:54;;;;;;;7.47;6.37;;;;;;;1.46;100.00;95716.34;5114178;28;20191;-90
2021/01/14 07:35:41;;;;;;;5.63;4.93;;;;;;;1.54;100.00;95721.75;5113750;28;20206;-91
2021/01/14 07:38:11;;;;;;;10.63;8.20;;;;;;;1.69;100.00;95722.34;5113862;28;20210;-90
2021/01/14 07:40:40;;;;;;;12.30;8.47;;;;;;;1.34;100.00;95725.84;5113834;28;20656;-90
2021/01/14 07:43:09;;;;;;;8.60;6.43;;;;;;;1.07;100.00;95720.97;5113527;28;20192;-92
2021/01/14 07:45:37;;;;;;;6.03;5.00;;;;;;;1.03;100.00;95723.91;5113527;28;20257;-91
2021/01/14 07:48:23;;;;;;;3.67;3.17;;;;;;;1.38;100.00;95729.03;5113867;28;20191;-91
2021/01/14 07:50:52;;;;;;;6.33;5.53;;;;;;;1.65;100.00;95726.13;5113862;28;20199;-91
2021/01/14 07:53:20;;;;;;;5.73;4.23;;;;;;;1.41;100.00;95732.22;5113465;28;20195;-92
2021/01/14 07:55:51;;;;;;;5.50;4.10;;;;;;;1.64;100.00;95727.88;5114087;28;20625;-91
2021/01/14 07:58:23;;;;;;;5.67;4.17;;;;;;;1.57;100.00;95729.28;5114925;28;20697;-91
2021/01/14 08:01:02;;;;;;;4.77;4.20;;;;;;;1.89;100.00;95726.00;5113461;28;20228;-90
2021/01/14 08:03:31;;;;;;;3.20;2.90;;;;;;;2.16;100.00;95725.63;5115343;28;20179;-91
2021/01/14 08:05:59;;;;;;;4.03;3.37;;;;;;;2.53;100.00;95722.69;5123364;28;20199;-91
2021/01/14 08:08:34;;;;;;;4.53;3.40;;;;;;;2.78;100.00;95731.94;5131373;28;20275;-90
2021/01/14 08:11:24;;;;;;;3.50;2.40;;;;;;;3.27;100.00;95713.16;5125762;28;20205;-90
2021/01/14 08:14:21;;;;;;;2.20;2.03;;;;;;;3.32;100.00;95721.38;5109962;28;20218;-90
2021/01/14 08:16:50;;;;;;;6.90;4.70;;;;;;;3.24;100.00;95715.19;5113722;28;20610;-91
2021/01/14 08:19:31;;;;;;;5.60;3.57;;;;;;;3.25;100.00;95714.25;5112983;28;20693;-91
2021/01/14 08:22:07;;;;;;;5.90;4.47;;;;;;;3.48;100.00;95715.75;5113636;28;20201;-91
2021/01/14 08:24:41;;;;;;;1.93;1.83;;;;;;;3.53;100.00;95717.94;5113546;28;20196;-91
2021/01/14 08:27:11;;;;;;;6.60;6.00;;;;;;;3.51;100.00;95717.28;5115409;28;20275;-91
2021/01/14 08:29:46;;;;;;;5.20;3.60;;;;;;;3.64;100.00;95719.66;5113193;28;20202;-90
2021/01/14 08:32:39;;;;;;;2.97;2.37;;;;;;;3.42;100.00;95716.25;5113282;28;20224;-91
2021/01/14 08:35:09;;;;;;;4.20;3.03;;;;;;;3.17;100.00;95724.44;5116663;28;20206;-91
2021/01/14 08:37:37;;;;;;;4.87;3.63;;;;;;;3.67;100.00;95722.00;5114812;28;20215;-94
2021/01/14 08:40:08;;;;;;;3.60;2.90;;;;;;;3.49;100.00;95724.38;5113102;28;20195;-93
2021/01/14 08:42:38;;;;;;;4.03;2.80;;;;;;;3.68;100.00;95721.88;5113223;28;20184;-93
2021/01/14 08:45:15;;;;;;;2.73;2.27;;;;;;;4.09;100.00;95727.94;5113113;28;20203;-93
2021/01/14 08:48:03;;;;;;;2.13;1.93;;;;;;;4.15;100.00;95731.75;5112990;28;20184;-93
2021/01/14 08:50:45;;;;;;;4.93;2.97;;;;;;;4.02;100.00;95722.44;5113525;28;20276;-94
2021/01/14 08:53:23;;;;;;;2.53;2.30;;;;;;;3.70;100.00;95732.13;5113108;28;20199;-94
2021/01/14 08:55:54;;;;;;;2.50;2.30;;;;;;;4.32;100.00;95728.53;5113154;28;20184;-94
2021/01/14 08:58:39;;;;;;;2.97;2.23;;;;;;;4.42;100.00;95731.16;5112469;28;20219;-94
2021/01/14 09:01:07;;;;;;;3.20;2.90;;;;;;;3.75;100.00;95722.19;5113307;28;20665;-93
2021/01/14 09:03:35;;;;;;;2.53;2.33;;;;;;;3.03;100.00;95723.81;5112705;28;20200;-95
2021/01/14 09:06:02;;;;;;;2.97;2.63;;;;;;;3.12;100.00;95719.66;5113127;28;20683;-94
2021/01/14 09:08:29;;;;;;;3.50;3.10;;;;;;;2.59;100.00;95733.41;5112473;28;20195;-94
2021/01/14 09:10:56;;;;;;;3.50;3.17;;;;;;;2.21;100.00;95725.25;5113142;28;20677;-93
2021/01/14 09:13:26;;;;;;;3.60;1.90;;;;;;;2.22;100.00;95719.09;5112780;28;20200;-95
2021/01/14 09:15:54;;;;;;;3.63;2.60;;;;;;;2.23;100.00;95710.41;5115930;28;20245;-94
2021/01/14 09:18:31;;;;;;;5.60;3.33;;;;;;;2.78;100.00;95712.00;5116037;28;20227;-94
2021/01/14 09:20:58;;;;;;;3.17;2.87;;;;;;;3.37;100.00;95718.44;5116533;28;20176;-94
2021/01/14 09:23:32;;;;;;;3.10;2.80;;;;;;;4.13;100.00;95721.50;5116874;28;20199;-94
2021/01/14 09:26:00;;;;;;;5.23;2.60;;;;;;;4.02;100.00;95730.22;5116421;28;20660;-96
2021/01/14 09:28:29;;;;;;;2.73;2.23;;;;;;;3.92;100.00;95729.38;5116170;28;20300;-94
2021/01/14 09:30:57;;;;;;;2.53;2.00;;;;;;;3.48;100.00;95720.94;5116595;28;20199;-96
2021/01/14 09:33:26;;;;;;;2.30;2.10;;;;;;;3.30;100.00;95718.13;5116260;28;20732;-95
2021/01/14 09:36:01;;;;;;;7.20;4.60;;;;;;;3.56;100.00;95712.50;5115843;28;20221;-94
2021/01/14 09:38:28;;;;;;;10.37;6.63;;;;;;;3.37;100.00;95713.22;5115695;28;20219;-95
2021/01/14 09:40:56;;;;;;;9.23;7.00;;;;;;;3.25;100.00;95712.47;5116283;28;20617;-94
2021/01/14 09:43:25;;;;;;;19.07;13.63;;;;;;;3.00;100.00;95710.25;5115923;28;20196;-92
2021/01/14 09:45:53;;;;;;;16.33;10.60;;;;;;;2.86;100.00;95709.59;5115975;28;20256;-92
2021/01/14 09:48:21;;;;;;;10.47;6.37;;;;;;;2.44;100.00;95685.34;5115675;28;20188;-92
2021/01/14 09:50:50;;;;;;;10.63;7.33;;;;;;;2.09;100.00;95678.63;5116287;28;20268;-92
2021/01/14 09:53:17;;;;;;;14.63;10.87;;;;;;;2.29;100.00;95679.63;5115706;28;20192;-91
2021/01/14 09:55:44;;;;;;;10.23;7.73;;;;;;;2.79;100.00;95668.72;5116288;28;20270;-92
2021/01/14 09:58:18;;;;;;;9.03;7.63;;;;;;;3.07;100.00;95665.47;5115908;28;20286;-92
2021/01/14 10:00:47;;;;;;;9.97;7.73;;;;;;;3.55;100.00;95659.72;5115440;28;20184;-92
2021/01/14 10:03:18;;;;;;;11.83;8.10;;;;;;;3.98;100.00;95647.41;5115504;28;20192;-92
2021/01/14 10:05:49;;;;;;;6.40;5.40;;;;;;;4.33;100.00;95639.13;5115989;28;20542;-94
2021/01/14 10:08:20;;;;;;;15.83;8.23;;;;;;;4.41;100.00;95631.47;5115289;28;20198;-92
2021/01/14 10:10:48;;;;;;;10.67;7.70;;;;;;;4.42;100.00;95624.47;5115575;28;20210;-95
2021/01/14 10:13:16;;;;;;;7.90;7.10;;;;;;;4.79;100.00;95621.19;5115840;28;20271;-95
2021/01/14 10:15:44;;;;;;;10.83;7.90;;;;;;;4.73;100.00;95609.53;5115451;28;20283;-94
2021/01/14 10:18:26;;;;;;;9.63;7.00;;;;;;;4.21;100.00;95602.00;5115012;28;20223;-95
2021/01/14 10:21:00;;;;;;;9.20;7.17;;;;;;;4.18;100.00;95591.06;5115398;28;20183;-94
2021/01/14 10:23:27;;;;;;;12.37;7.83;;;;;;;3.66;100.00;95593.84;5115309;28;20286;-95
2021/01/14 10:25:55;;;;;;;13.90;9.67;;;;;;;3.72;100.00;95588.09;5114933;28;20195;-94
2021/01/14 10:28:22;;;;;;;11.03;7.40;;;;;;;3.63;100.00;95582.88;5115665;28;20672;-95
2021/01/14 10:30:50;;;;;;;11.87;7.63;;;;;;;4.14;100.00;95568.88;5115161;28;20195;-94
2021/01/14 10:33:17;;;;;;;7.87;6.20;;;;;;;4.81;100.00;95569.78;5115250;28;20218;-94
2021/01/14 10:35:54;;;;;;;8.17;6.43;;;;;;;4.90;100.00;95554.16;5117137;28;20652;-96
2021/01/14 10:38:21;;;;;;;10.63;9.30;;;;;;;4.69;100.00;95537.91;5115117;28;20296;-95
2021/01/14 10:40:49;;;;;;;11.10;9.10;;;;;;;5.18;100.00;95526.34;5115209;28;20195;-93
2021/01/14 10:43:30;;;;;;;9.33;5.00;;;;;;;5.27;100.00;95514.28;5114993;28;20203;-94
2021/01/14 10:45:57;;;;;;;10.60;8.40;;;;;;;5.13;100.00;95509.53;5114919;28;20175;-94
2021/01/14 10:48:24;;;;;;;8.17;5.27;;;;;;;4.86;100.00;95511.13;5114779;28;20570;-95
2021/01/14 10:50:53;;;;;;;8.67;6.20;;;;;;;5.90;100.00;95514.31;5115415;28;20698;-96
2021/01/14 10:53:29;;;;;;;8.23;5.27;;;;;;;5.97;100.00;95516.34;5114600;28;20672;-94
2021/01/14 10:56:04;;;;;;;5.50;5.03;;;;;;;5.60;100.00;95506.81;5114955;28;20258;-95
2021/01/14 10:58:31;;;;;;;11.40;8.57;;;;;;;5.14;100.00;95498.97;5114260;28;20310;-94
2021/01/14 11:00:58;;;;;;;8.60;7.10;;;;;;;4.97;100.00;95491.91;5114775;28;20199;-93
2021/01/14 11:03:26;;;;;;;7.97;6.30;;;;;;;4.70;100.00;95482.25;5114728;28;20248;-94
2021/01/14 11:05:57;;;;;;;5.60;4.10;;;;;;;4.89;100.00;95474.41;5114699;28;20238;-94
2021/01/14 11:08:26;;;;;;;7.77;5.03;;;;;;;4.92;100.00;95462.88;5114367;28;20180;-93
2021/01/14 11:11:04;;;;;;;4.80;4.33;;;;;;;5.89;100.00;95457.09;5114388;28;20593;-96
2021/01/14 11:13:42;;;;;;;7.13;5.00;;;;;;;6.60;100.00;95441.31;5114535;28;20285;-95
2021/01/14 11:16:10;;;;;;;5.27;4.63;;;;;;;6.62;100.00;95430.75;5114986;28;20187;-94
2021/01/14 11:18:38;;;;;;;8.73;5.07;;;;;;;5.55;100.00;95429.06;5114103;28;20219;-95
2021/01/14 11:21:06;;;;;;;4.90;4.43;;;;;;;5.01;100.00;95421.16;5114384;28;20194;-94
2021/01/14 11:23:33;;;;;;;7.80;5.57;;;;;;;5.38;100.00;95415.03;5113993;28;20199;-95
2021/01/14 11:26:02;;;;;;;6.87;5.63;;;;;;;4.89;100.00;95406.69;5114475;28;20202;-94
2021/01/14 11:28:30;;;;;;;8.23;4.87;;;;;;;5.30;100.00;95403.72;5113924;28;20187;-95
2021/01/14 11:30:57;;;;;;;5.87;5.30;;;;;;;4.90;100.00;95410.94;5114147;28;20188;-95
2021/01/14 11:33:24;;;;;;;4.50;4.03;;;;;;;4.80;100.00;95415.38;5113904;28;20200;-95
2021/01/14 11:35:51;;;;;;;9.03;6.47;;;;;;;5.00;100.00;95426.50;5114253;28;20222;-94
2021/01/14 11:38:20;;;;;;;6.33;5.73;;;;;;;5.43;100.00;95448.47;5112732;28;20219;-95
2021/01/14 11:40:48;;;;;;;6.07;4.93;;;;;;;4.63;100.00;95440.34;5114020;28;20192;-94
2021/01/14 11:43:16;;;;;;;5.43;4.17;;;;;;;4.64;100.00;95439.41;5114299;28;20847;-95
2021/01/14 11:45:43;;;;;;;8.70;6.93;;;;;;;4.60;100.00;95455.44;5113781;28;20234;-94